デンバー の空港の天気 - METARとTAF

デンバー国際空港 ( KDEN / DEN ) - アメリカ コロラド州デンバー
飛行場実況気象(Metar)
観測時間04/26 22:53 MDT (04/27 04:53 UTC)
風向・風速南 6m/s
視程10km以上
天気現象
なし
気温5℃
湿度55%
気圧1022.2hPa
METARKDEN 270453Z 17012KT 10SM CLR 05/M03 A3025 RMK AO2 SLP222 T00501033
過去の天気等 Google飛行場航空写真 Wunderground天気予報

過去48時間のMETAR

飛行場予報(TAF)
発表時間: 4/26 21:32 MDT (4/27 03:32 UTC)
予報対象時間: 26日22時 MDT ~ 28日0時 MDT
風向・風速南南東 5m/s
視程10km以上
なし
26日23時 MDT から
風向・風速南南西 5m/s
視程10km以上
なし
27日8時 MDT から
風向・風速不定 3m/s
視程10km以上
なし
27日12時 MDT から
風向・風速東 4m/s
視程10km以上
なし
27日15時 MDT から
風向・風速東 6m/s
視程10km以上
少しの雲 雲底高度 3,050m
27日20時 MDT から
風向・風速南東 5m/s
視程10km以上
少しの雲 雲底高度 3,660m
KDEN 270332Z 2704/2806 15009KT P6SM SKC
FM270500 20009KT P6SM SKC
FM271400 VRB06KT P6SM SKC
FM271800 08007KT P6SM SKC
FM272100 09012KT P6SM FEW100
FM280200 13009KT P6SM FEW120